sensor_id;sensor_type;location;lat;lon;timestamp;P1;durP1;ratioP1;P2;durP2;ratioP2
11245;SDS011;59870;50.106;8.580;2023-01-29T00:01:09;8.30;;;5.10;;
11245;SDS011;59870;50.106;8.580;2023-01-29T00:07:45;6.27;;;5.60;;
11245;SDS011;59870;50.106;8.580;2023-01-29T00:10:15;6.53;;;5.93;;
11245;SDS011;59870;50.106;8.580;2023-01-29T00:12:44;6.07;;;5.57;;
11245;SDS011;59870;50.106;8.580;2023-01-29T00:15:15;5.73;;;5.23;;
11245;SDS011;59870;50.106;8.580;2023-01-29T00:17:44;4.97;;;4.67;;
11245;SDS011;59870;50.106;8.580;2023-01-29T00:20:13;5.80;;;5.47;;
11245;SDS011;59870;50.106;8.580;2023-01-29T00:22:44;5.80;;;5.50;;
11245;SDS011;59870;50.106;8.580;2023-01-29T00:25:13;5.03;;;4.73;;
11245;SDS011;59870;50.106;8.580;2023-01-29T00:27:42;7.57;;;5.37;;
11245;SDS011;59870;50.106;8.580;2023-01-29T00:30:10;5.23;;;5.03;;
11245;SDS011;59870;50.106;8.580;2023-01-29T00:32:39;6.03;;;5.63;;
11245;SDS011;59870;50.106;8.580;2023-01-29T00:35:07;5.47;;;5.07;;
11245;SDS011;59870;50.106;8.580;2023-01-29T00:37:35;5.70;;;5.30;;
11245;SDS011;59870;50.106;8.580;2023-01-29T00:40:03;5.77;;;5.37;;
11245;SDS011;59870;50.106;8.580;2023-01-29T00:42:35;5.40;;;5.00;;
11245;SDS011;59870;50.106;8.580;2023-01-29T00:45:22;6.33;;;5.83;;
11245;SDS011;59870;50.106;8.580;2023-01-29T00:47:50;6.57;;;6.17;;
11245;SDS011;59870;50.106;8.580;2023-01-29T00:50:20;6.27;;;5.97;;
11245;SDS011;59870;50.106;8.580;2023-01-29T00:52:50;6.73;;;6.23;;
11245;SDS011;59870;50.106;8.580;2023-01-29T00:55:19;5.50;;;5.17;;
11245;SDS011;59870;50.106;8.580;2023-01-29T00:57:47;7.33;;;6.53;;
11245;SDS011;59870;50.106;8.580;2023-01-29T01:00:16;5.57;;;5.27;;
11245;SDS011;59870;50.106;8.580;2023-01-29T01:02:46;6.33;;;5.93;;
11245;SDS011;59870;50.106;8.580;2023-01-29T01:05:34;5.90;;;5.50;;
11245;SDS011;59870;50.106;8.580;2023-01-29T01:08:03;6.23;;;5.90;;
11245;SDS011;59870;50.106;8.580;2023-01-29T01:10:57;5.93;;;5.53;;
11245;SDS011;59870;50.106;8.580;2023-01-29T01:13:26;5.50;;;5.23;;
11245;SDS011;59870;50.106;8.580;2023-01-29T01:15:54;6.17;;;5.77;;
11245;SDS011;59870;50.106;8.580;2023-01-29T01:18:21;6.80;;;6.30;;
11245;SDS011;59870;50.106;8.580;2023-01-29T01:20:55;6.33;;;5.83;;
11245;SDS011;59870;50.106;8.580;2023-01-29T01:23:24;5.53;;;5.27;;
11245;SDS011;59870;50.106;8.580;2023-01-29T01:25:54;6.27;;;5.80;;
11245;SDS011;59870;50.106;8.580;2023-01-29T01:28:24;6.10;;;5.70;;
11245;SDS011;59870;50.106;8.580;2023-01-29T01:30:52;6.17;;;5.80;;
11245;SDS011;59870;50.106;8.580;2023-01-29T01:33:20;6.43;;;6.10;;
11245;SDS011;59870;50.106;8.580;2023-01-29T01:35:47;5.90;;;5.50;;
11245;SDS011;59870;50.106;8.580;2023-01-29T01:38:15;5.90;;;5.60;;
11245;SDS011;59870;50.106;8.580;2023-01-29T01:40:43;6.43;;;6.03;;
11245;SDS011;59870;50.106;8.580;2023-01-29T01:43:11;6.07;;;5.67;;
11245;SDS011;59870;50.106;8.580;2023-01-29T01:45:39;6.10;;;5.80;;
11245;SDS011;59870;50.106;8.580;2023-01-29T01:48:14;6.33;;;5.93;;
11245;SDS011;59870;50.106;8.580;2023-01-29T01:50:55;6.67;;;6.13;;
11245;SDS011;59870;50.106;8.580;2023-01-29T01:53:36;6.03;;;5.73;;
11245;SDS011;59870;50.106;8.580;2023-01-29T01:56:10;6.50;;;6.00;;
11245;SDS011;59870;50.106;8.580;2023-01-29T01:58:42;6.17;;;5.70;;
11245;SDS011;59870;50.106;8.580;2023-01-29T02:01:17;6.97;;;6.47;;
11245;SDS011;59870;50.106;8.580;2023-01-29T02:03:58;6.80;;;6.40;;
11245;SDS011;59870;50.106;8.580;2023-01-29T02:06:49;6.87;;;6.53;;
11245;SDS011;59870;50.106;8.580;2023-01-29T02:09:38;6.43;;;5.93;;
11245;SDS011;59870;50.106;8.580;2023-01-29T02:12:12;7.17;;;6.73;;
11245;SDS011;59870;50.106;8.580;2023-01-29T02:14:41;7.20;;;6.70;;
11245;SDS011;59870;50.106;8.580;2023-01-29T02:17:11;6.97;;;6.57;;
11245;SDS011;59870;50.106;8.580;2023-01-29T02:19:55;7.33;;;6.73;;
11245;SDS011;59870;50.106;8.580;2023-01-29T02:28:53;7.10;;;6.70;;
11245;SDS011;59870;50.106;8.580;2023-01-29T02:31:55;7.17;;;6.77;;
11245;SDS011;59870;50.106;8.580;2023-01-29T02:40:49;7.80;;;7.20;;
11245;SDS011;59870;50.106;8.580;2023-01-29T02:49:00;8.00;;;7.33;;
11245;SDS011;59870;50.106;8.580;2023-01-29T02:51:35;7.30;;;6.90;;
11245;SDS011;59870;50.106;8.580;2023-01-29T02:54:28;8.00;;;7.27;;
11245;SDS011;59870;50.106;8.580;2023-01-29T02:57:04;7.40;;;7.00;;
11245;SDS011;59870;50.106;8.580;2023-01-29T02:59:49;8.27;;;7.47;;
11245;SDS011;59870;50.106;8.580;2023-01-29T03:05:10;7.47;;;6.97;;
11245;SDS011;59870;50.106;8.580;2023-01-29T03:07:54;7.47;;;6.97;;
11245;SDS011;59870;50.106;8.580;2023-01-29T03:10:39;7.50;;;7.00;;
11245;SDS011;59870;50.106;8.580;2023-01-29T03:13:35;7.60;;;7.00;;
11245;SDS011;59870;50.106;8.580;2023-01-29T03:16:31;7.17;;;6.57;;
11245;SDS011;59870;50.106;8.580;2023-01-29T03:19:13;7.67;;;7.20;;
11245;SDS011;59870;50.106;8.580;2023-01-29T03:21:47;7.57;;;7.17;;
11245;SDS011;59870;50.106;8.580;2023-01-29T03:24:37;7.50;;;7.00;;
11245;SDS011;59870;50.106;8.580;2023-01-29T03:27:32;7.77;;;7.03;;
11245;SDS011;59870;50.106;8.580;2023-01-29T03:30:24;7.17;;;6.77;;
11245;SDS011;59870;50.106;8.580;2023-01-29T03:33:28;7.60;;;7.10;;
11245;SDS011;59870;50.106;8.580;2023-01-29T03:39:07;7.03;;;6.63;;
11245;SDS011;59870;50.106;8.580;2023-01-29T03:47:19;7.50;;;7.00;;
11245;SDS011;59870;50.106;8.580;2023-01-29T03:52:42;8.23;;;7.57;;
11245;SDS011;59870;50.106;8.580;2023-01-29T04:01:01;7.10;;;6.57;;
11245;SDS011;59870;50.106;8.580;2023-01-29T04:03:41;7.70;;;7.17;;
11245;SDS011;59870;50.106;8.580;2023-01-29T04:06:17;7.00;;;6.57;;
11245;SDS011;59870;50.106;8.580;2023-01-29T04:11:36;6.73;;;6.33;;
11245;SDS011;59870;50.106;8.580;2023-01-29T04:14:07;7.30;;;6.87;;
11245;SDS011;59870;50.106;8.580;2023-01-29T04:16:39;6.93;;;6.53;;
11245;SDS011;59870;50.106;8.580;2023-01-29T04:19:33;7.13;;;6.53;;
11245;SDS011;59870;50.106;8.580;2023-01-29T04:22:23;7.20;;;6.70;;
11245;SDS011;59870;50.106;8.580;2023-01-29T04:24:52;7.40;;;6.90;;
11245;SDS011;59870;50.106;8.580;2023-01-29T04:27:23;7.33;;;6.93;;
11245;SDS011;59870;50.106;8.580;2023-01-29T04:30:04;7.53;;;7.03;;
11245;SDS011;59870;50.106;8.580;2023-01-29T04:49:47;6.90;;;6.40;;
11245;SDS011;59870;50.106;8.580;2023-01-29T04:55:29;6.73;;;6.27;;
11245;SDS011;59870;50.106;8.580;2023-01-29T05:00:52;6.40;;;6.00;;
11245;SDS011;59870;50.106;8.580;2023-01-29T05:03:21;7.50;;;6.90;;
11245;SDS011;59870;50.106;8.580;2023-01-29T05:05:51;7.10;;;6.60;;
11245;SDS011;59870;50.106;8.580;2023-01-29T05:08:22;7.10;;;6.60;;
11245;SDS011;59870;50.106;8.580;2023-01-29T05:10:51;7.63;;;7.13;;
11245;SDS011;59870;50.106;8.580;2023-01-29T05:13:21;6.83;;;6.43;;
11245;SDS011;59870;50.106;8.580;2023-01-29T05:15:55;7.47;;;6.90;;
11245;SDS011;59870;50.106;8.580;2023-01-29T05:18:28;6.80;;;6.40;;
11245;SDS011;59870;50.106;8.580;2023-01-29T05:20:56;7.70;;;7.10;;
11245;SDS011;59870;50.106;8.580;2023-01-29T05:23:28;8.30;;;7.70;;
11245;SDS011;59870;50.106;8.580;2023-01-29T05:25:56;8.00;;;7.30;;
11245;SDS011;59870;50.106;8.580;2023-01-29T05:28:24;7.93;;;7.23;;
11245;SDS011;59870;50.106;8.580;2023-01-29T05:30:52;7.70;;;7.20;;
11245;SDS011;59870;50.106;8.580;2023-01-29T05:33:25;7.30;;;6.80;;
11245;SDS011;59870;50.106;8.580;2023-01-29T05:35:54;6.97;;;6.57;;
11245;SDS011;59870;50.106;8.580;2023-01-29T05:38:24;7.17;;;6.77;;
11245;SDS011;59870;50.106;8.580;2023-01-29T05:40:51;7.50;;;7.10;;
11245;SDS011;59870;50.106;8.580;2023-01-29T05:43:21;8.30;;;7.70;;
11245;SDS011;59870;50.106;8.580;2023-01-29T05:45:57;7.67;;;7.07;;
11245;SDS011;59870;50.106;8.580;2023-01-29T05:48:27;8.33;;;7.73;;
11245;SDS011;59870;50.106;8.580;2023-01-29T05:50:59;7.63;;;7.10;;
11245;SDS011;59870;50.106;8.580;2023-01-29T05:53:30;8.40;;;7.80;;
11245;SDS011;59870;50.106;8.580;2023-01-29T05:56:02;7.50;;;7.00;;
11245;SDS011;59870;50.106;8.580;2023-01-29T05:58:30;7.83;;;7.23;;
11245;SDS011;59870;50.106;8.580;2023-01-29T06:01:12;7.63;;;7.13;;
11245;SDS011;59870;50.106;8.580;2023-01-29T06:03:41;8.57;;;7.50;;
11245;SDS011;59870;50.106;8.580;2023-01-29T06:06:09;10.07;;;7.80;;
11245;SDS011;59870;50.106;8.580;2023-01-29T06:08:37;8.50;;;7.80;;
11245;SDS011;59870;50.106;8.580;2023-01-29T06:11:11;8.03;;;7.43;;
11245;SDS011;59870;50.106;8.580;2023-01-29T06:13:40;8.37;;;7.87;;
11245;SDS011;59870;50.106;8.580;2023-01-29T06:16:08;8.03;;;7.40;;
11245;SDS011;59870;50.106;8.580;2023-01-29T06:18:37;8.47;;;7.90;;
11245;SDS011;59870;50.106;8.580;2023-01-29T06:21:06;8.10;;;7.60;;
11245;SDS011;59870;50.106;8.580;2023-01-29T06:23:36;8.60;;;8.10;;
11245;SDS011;59870;50.106;8.580;2023-01-29T06:26:05;8.67;;;7.87;;
11245;SDS011;59870;50.106;8.580;2023-01-29T06:28:36;9.37;;;8.70;;
11245;SDS011;59870;50.106;8.580;2023-01-29T06:31:05;8.47;;;7.87;;
11245;SDS011;59870;50.106;8.580;2023-01-29T06:33:54;9.40;;;8.70;;
11245;SDS011;59870;50.106;8.580;2023-01-29T06:36:21;10.17;;;9.47;;
11245;SDS011;59870;50.106;8.580;2023-01-29T06:38:48;10.50;;;9.67;;
11245;SDS011;59870;50.106;8.580;2023-01-29T06:41:17;9.93;;;9.07;;
11245;SDS011;59870;50.106;8.580;2023-01-29T06:43:45;10.23;;;9.53;;
11245;SDS011;59870;50.106;8.580;2023-01-29T06:46:13;10.53;;;9.73;;
11245;SDS011;59870;50.106;8.580;2023-01-29T06:48:41;11.20;;;10.30;;
11245;SDS011;59870;50.106;8.580;2023-01-29T06:51:09;10.77;;;9.87;;
11245;SDS011;59870;50.106;8.580;2023-01-29T06:53:37;11.20;;;10.33;;
11245;SDS011;59870;50.106;8.580;2023-01-29T06:56:05;10.57;;;9.57;;
11245;SDS011;59870;50.106;8.580;2023-01-29T06:58:36;11.20;;;10.30;;
11245;SDS011;59870;50.106;8.580;2023-01-29T07:01:05;12.70;;;11.47;;
11245;SDS011;59870;50.106;8.580;2023-01-29T07:03:34;12.23;;;11.23;;
11245;SDS011;59870;50.106;8.580;2023-01-29T07:06:01;12.93;;;11.83;;
11245;SDS011;59870;50.106;8.580;2023-01-29T07:08:30;13.50;;;12.30;;
11245;SDS011;59870;50.106;8.580;2023-01-29T07:10:58;11.73;;;10.73;;
11245;SDS011;59870;50.106;8.580;2023-01-29T07:13:26;12.67;;;11.57;;
11245;SDS011;59870;50.106;8.580;2023-01-29T07:16:01;11.87;;;10.90;;
11245;SDS011;59870;50.106;8.580;2023-01-29T07:18:29;12.57;;;11.43;;
11245;SDS011;59870;50.106;8.580;2023-01-29T07:20:57;12.80;;;11.73;;
11245;SDS011;59870;50.106;8.580;2023-01-29T07:23:24;12.77;;;11.63;;
11245;SDS011;59870;50.106;8.580;2023-01-29T07:25:52;12.80;;;11.77;;
11245;SDS011;59870;50.106;8.580;2023-01-29T07:28:20;12.97;;;11.77;;
11245;SDS011;59870;50.106;8.580;2023-01-29T07:30:48;12.70;;;11.60;;
11245;SDS011;59870;50.106;8.580;2023-01-29T07:33:16;12.47;;;11.40;;
11245;SDS011;59870;50.106;8.580;2023-01-29T07:35:43;12.80;;;11.63;;
11245;SDS011;59870;50.106;8.580;2023-01-29T07:38:11;11.97;;;11.00;;
11245;SDS011;59870;50.106;8.580;2023-01-29T07:40:39;12.53;;;11.47;;
11245;SDS011;59870;50.106;8.580;2023-01-29T07:43:06;13.47;;;12.27;;
11245;SDS011;59870;50.106;8.580;2023-01-29T07:45:35;12.53;;;11.40;;
11245;SDS011;59870;50.106;8.580;2023-01-29T07:48:04;12.70;;;11.50;;
11245;SDS011;59870;50.106;8.580;2023-01-29T07:50:33;13.03;;;11.87;;
11245;SDS011;59870;50.106;8.580;2023-01-29T07:53:01;13.47;;;12.13;;
11245;SDS011;59870;50.106;8.580;2023-01-29T07:55:29;13.47;;;12.37;;
11245;SDS011;59870;50.106;8.580;2023-01-29T07:57:58;13.30;;;12.17;;
11245;SDS011;59870;50.106;8.580;2023-01-29T08:00:26;13.03;;;11.93;;
11245;SDS011;59870;50.106;8.580;2023-01-29T08:03:05;12.20;;;11.27;;
11245;SDS011;59870;50.106;8.580;2023-01-29T08:05:35;13.03;;;12.03;;
11245;SDS011;59870;50.106;8.580;2023-01-29T08:08:03;12.90;;;11.80;;
11245;SDS011;59870;50.106;8.580;2023-01-29T08:10:34;12.17;;;11.20;;
11245;SDS011;59870;50.106;8.580;2023-01-29T08:13:02;13.43;;;12.23;;
11245;SDS011;59870;50.106;8.580;2023-01-29T08:15:31;13.00;;;11.90;;
11245;SDS011;59870;50.106;8.580;2023-01-29T08:18:02;13.47;;;12.37;;
11245;SDS011;59870;50.106;8.580;2023-01-29T08:20:30;14.53;;;13.10;;
11245;SDS011;59870;50.106;8.580;2023-01-29T08:23:09;13.07;;;11.97;;
11245;SDS011;59870;50.106;8.580;2023-01-29T08:25:40;13.03;;;11.80;;
11245;SDS011;59870;50.106;8.580;2023-01-29T08:28:08;13.13;;;12.00;;
11245;SDS011;59870;50.106;8.580;2023-01-29T08:30:37;13.43;;;12.33;;
11245;SDS011;59870;50.106;8.580;2023-01-29T08:33:04;13.47;;;12.37;;
11245;SDS011;59870;50.106;8.580;2023-01-29T08:35:32;12.67;;;11.47;;
11245;SDS011;59870;50.106;8.580;2023-01-29T08:38:01;12.63;;;11.43;;
11245;SDS011;59870;50.106;8.580;2023-01-29T08:40:31;13.03;;;11.93;;
11245;SDS011;59870;50.106;8.580;2023-01-29T08:43:00;14.17;;;12.87;;
11245;SDS011;59870;50.106;8.580;2023-01-29T08:45:32;20.97;;;12.47;;
11245;SDS011;59870;50.106;8.580;2023-01-29T08:48:01;13.30;;;12.07;;
11245;SDS011;59870;50.106;8.580;2023-01-29T08:50:29;13.23;;;12.17;;
11245;SDS011;59870;50.106;8.580;2023-01-29T08:52:58;13.43;;;12.23;;
11245;SDS011;59870;50.106;8.580;2023-01-29T08:55:26;11.27;;;10.37;;
11245;SDS011;59870;50.106;8.580;2023-01-29T08:57:54;9.13;;;8.53;;
11245;SDS011;59870;50.106;8.580;2023-01-29T09:00:24;10.60;;;9.70;;
11245;SDS011;59870;50.106;8.580;2023-01-29T09:02:52;9.80;;;9.10;;
11245;SDS011;59870;50.106;8.580;2023-01-29T09:05:19;9.10;;;8.50;;
11245;SDS011;59870;50.106;8.580;2023-01-29T09:07:47;10.57;;;9.57;;
11245;SDS011;59870;50.106;8.580;2023-01-29T09:10:14;9.90;;;9.20;;
11245;SDS011;59870;50.106;8.580;2023-01-29T09:12:42;10.27;;;9.33;;
11245;SDS011;59870;50.106;8.580;2023-01-29T09:15:10;11.73;;;10.83;;
11245;SDS011;59870;50.106;8.580;2023-01-29T09:17:37;10.60;;;9.80;;
11245;SDS011;59870;50.106;8.580;2023-01-29T09:20:05;11.17;;;10.27;;
11245;SDS011;59870;50.106;8.580;2023-01-29T09:22:33;10.27;;;9.53;;
11245;SDS011;59870;50.106;8.580;2023-01-29T09:25:01;10.93;;;10.07;;
11245;SDS011;59870;50.106;8.580;2023-01-29T09:27:29;11.13;;;10.30;;
11245;SDS011;59870;50.106;8.580;2023-01-29T09:29:56;11.47;;;10.47;;
11245;SDS011;59870;50.106;8.580;2023-01-29T09:32:23;10.93;;;10.13;;
11245;SDS011;59870;50.106;8.580;2023-01-29T09:35:11;11.73;;;10.73;;
11245;SDS011;59870;50.106;8.580;2023-01-29T09:37:38;11.80;;;10.77;;
11245;SDS011;59870;50.106;8.580;2023-01-29T09:40:05;12.33;;;11.13;;
11245;SDS011;59870;50.106;8.580;2023-01-29T09:42:38;12.47;;;11.47;;
11245;SDS011;59870;50.106;8.580;2023-01-29T09:45:13;12.60;;;11.33;;
11245;SDS011;59870;50.106;8.580;2023-01-29T09:47:46;12.93;;;11.80;;
11245;SDS011;59870;50.106;8.580;2023-01-29T09:53:16;11.83;;;11.03;;
11245;SDS011;59870;50.106;8.580;2023-01-29T09:56:05;12.50;;;11.43;;
11245;SDS011;59870;50.106;8.580;2023-01-29T09:58:42;11.30;;;10.47;;
11245;SDS011;59870;50.106;8.580;2023-01-29T10:01:19;12.23;;;11.23;;
11245;SDS011;59870;50.106;8.580;2023-01-29T10:07:00;14.23;;;13.03;;
11245;SDS011;59870;50.106;8.580;2023-01-29T10:15:05;13.17;;;12.07;;
11245;SDS011;59870;50.106;8.580;2023-01-29T10:23:36;13.67;;;12.40;;
11245;SDS011;59870;50.106;8.580;2023-01-29T10:26:10;13.63;;;12.43;;
11245;SDS011;59870;50.106;8.580;2023-01-29T10:28:43;14.63;;;13.17;;
11245;SDS011;59870;50.106;8.580;2023-01-29T10:36:48;14.40;;;13.10;;
11245;SDS011;59870;50.106;8.580;2023-01-29T10:39:20;14.97;;;13.40;;
11245;SDS011;59870;50.106;8.580;2023-01-29T10:41:53;15.03;;;13.53;;
11245;SDS011;59870;50.106;8.580;2023-01-29T10:44:45;14.07;;;12.77;;
11245;SDS011;59870;50.106;8.580;2023-01-29T11:01:21;15.93;;;14.53;;
11245;SDS011;59870;50.106;8.580;2023-01-29T11:03:56;14.73;;;13.43;;
11245;SDS011;59870;50.106;8.580;2023-01-29T11:06:33;15.03;;;13.60;;
11245;SDS011;59870;50.106;8.580;2023-01-29T11:09:05;14.57;;;13.27;;
11245;SDS011;59870;50.106;8.580;2023-01-29T11:12:00;14.10;;;12.77;;
11245;SDS011;59870;50.106;8.580;2023-01-29T11:14:52;14.17;;;12.47;;
11245;SDS011;59870;50.106;8.580;2023-01-29T11:17:27;12.13;;;11.20;;
11245;SDS011;59870;50.106;8.580;2023-01-29T11:19:55;13.63;;;12.37;;
11245;SDS011;59870;50.106;8.580;2023-01-29T11:22:26;12.13;;;11.23;;
11245;SDS011;59870;50.106;8.580;2023-01-29T11:25:16;13.43;;;12.37;;
11245;SDS011;59870;50.106;8.580;2023-01-29T11:54:27;11.63;;;10.73;;
11245;SDS011;59870;50.106;8.580;2023-01-29T11:57:02;13.20;;;11.93;;
11245;SDS011;59870;50.106;8.580;2023-01-29T11:59:42;12.33;;;11.43;;
11245;SDS011;59870;50.106;8.580;2023-01-29T12:02:22;11.87;;;10.70;;
11245;SDS011;59870;50.106;8.580;2023-01-29T12:04:56;11.80;;;10.80;;
11245;SDS011;59870;50.106;8.580;2023-01-29T12:07:29;11.00;;;10.20;;
11245;SDS011;59870;50.106;8.580;2023-01-29T12:09:57;11.03;;;10.23;;
11245;SDS011;59870;50.106;8.580;2023-01-29T12:12:26;10.93;;;10.13;;
11245;SDS011;59870;50.106;8.580;2023-01-29T12:17:35;10.97;;;10.17;;
11245;SDS011;59870;50.106;8.580;2023-01-29T12:20:13;12.43;;;10.63;;
11245;SDS011;59870;50.106;8.580;2023-01-29T12:22:50;12.50;;;11.23;;
11245;SDS011;59870;50.106;8.580;2023-01-29T12:28:21;11.67;;;10.57;;
11245;SDS011;59870;50.106;8.580;2023-01-29T12:33:50;13.87;;;10.67;;
11245;SDS011;59870;50.106;8.580;2023-01-29T12:36:32;11.87;;;10.77;;
11245;SDS011;59870;50.106;8.580;2023-01-29T12:39:19;12.30;;;11.33;;
11245;SDS011;59870;50.106;8.580;2023-01-29T12:41:57;11.93;;;10.97;;
11245;SDS011;59870;50.106;8.580;2023-01-29T12:44:32;11.23;;;10.23;;
11245;SDS011;59870;50.106;8.580;2023-01-29T12:47:30;11.83;;;10.77;;
11245;SDS011;59870;50.106;8.580;2023-01-29T12:50:06;11.17;;;10.27;;
11245;SDS011;59870;50.106;8.580;2023-01-29T12:52:49;12.10;;;10.97;;
11245;SDS011;59870;50.106;8.580;2023-01-29T12:58:21;11.10;;;10.20;;
11245;SDS011;59870;50.106;8.580;2023-01-29T13:00:56;11.23;;;10.23;;
11245;SDS011;59870;50.106;8.580;2023-01-29T13:03:33;13.13;;;10.53;;
11245;SDS011;59870;50.106;8.580;2023-01-29T13:06:13;11.40;;;10.50;;
11245;SDS011;59870;50.106;8.580;2023-01-29T13:08:50;10.03;;;9.33;;
11245;SDS011;59870;50.106;8.580;2023-01-29T13:14:30;10.97;;;10.07;;
11245;SDS011;59870;50.106;8.580;2023-01-29T13:17:09;10.53;;;9.83;;
11245;SDS011;59870;50.106;8.580;2023-01-29T13:22:50;10.40;;;9.70;;
11245;SDS011;59870;50.106;8.580;2023-01-29T13:25:21;11.07;;;9.90;;
11245;SDS011;59870;50.106;8.580;2023-01-29T13:27:49;10.00;;;9.30;;
11245;SDS011;59870;50.106;8.580;2023-01-29T13:30:24;10.40;;;9.40;;
11245;SDS011;59870;50.106;8.580;2023-01-29T13:32:58;10.47;;;9.60;;
11245;SDS011;59870;50.106;8.580;2023-01-29T13:35:43;10.90;;;9.93;;
11245;SDS011;59870;50.106;8.580;2023-01-29T13:38:37;10.20;;;9.50;;
11245;SDS011;59870;50.106;8.580;2023-01-29T13:47:32;10.10;;;9.33;;
11245;SDS011;59870;50.106;8.580;2023-01-29T13:53:01;10.97;;;10.27;;
11245;SDS011;59870;50.106;8.580;2023-01-29T13:55:31;10.37;;;9.63;;
11245;SDS011;59870;50.106;8.580;2023-01-29T13:58:02;10.43;;;9.63;;
11245;SDS011;59870;50.106;8.580;2023-01-29T14:05:55;10.57;;;9.80;;
11245;SDS011;59870;50.106;8.580;2023-01-29T14:11:26;10.33;;;9.63;;
11245;SDS011;59870;50.106;8.580;2023-01-29T14:13:58;9.83;;;9.13;;
11245;SDS011;59870;50.106;8.580;2023-01-29T14:16:26;9.00;;;8.40;;
11245;SDS011;59870;50.106;8.580;2023-01-29T14:21:54;9.90;;;9.07;;
11245;SDS011;59870;50.106;8.580;2023-01-29T14:24:24;10.30;;;9.30;;
11245;SDS011;59870;50.106;8.580;2023-01-29T14:26:57;9.87;;;8.97;;
11245;SDS011;59870;50.106;8.580;2023-01-29T14:29:30;9.73;;;9.07;;
11245;SDS011;59870;50.106;8.580;2023-01-29T14:34:34;9.60;;;8.90;;
11245;SDS011;59870;50.106;8.580;2023-01-29T14:37:17;9.77;;;8.97;;
11245;SDS011;59870;50.106;8.580;2023-01-29T14:39:50;9.37;;;8.67;;
11245;SDS011;59870;50.106;8.580;2023-01-29T14:42:28;10.07;;;9.27;;
11245;SDS011;59870;50.106;8.580;2023-01-29T14:48:37;9.63;;;8.93;;
11245;SDS011;59870;50.106;8.580;2023-01-29T14:54:16;8.87;;;8.27;;
11245;SDS011;59870;50.106;8.580;2023-01-29T14:56:55;9.17;;;8.57;;
11245;SDS011;59870;50.106;8.580;2023-01-29T14:59:32;8.67;;;8.13;;
11245;SDS011;59870;50.106;8.580;2023-01-29T15:02:55;10.70;;;9.70;;
11245;SDS011;59870;50.106;8.580;2023-01-29T15:05:06;9.17;;;8.57;;
11245;SDS011;59870;50.106;8.580;2023-01-29T15:08:00;9.37;;;8.77;;
11245;SDS011;59870;50.106;8.580;2023-01-29T15:10:59;8.87;;;8.07;;
11245;SDS011;59870;50.106;8.580;2023-01-29T15:19:28;8.97;;;8.37;;
11245;SDS011;59870;50.106;8.580;2023-01-29T15:22:11;9.37;;;8.47;;
11245;SDS011;59870;50.106;8.580;2023-01-29T15:25:00;9.23;;;8.53;;
11245;SDS011;59870;50.106;8.580;2023-01-29T15:27:31;8.67;;;8.07;;
11245;SDS011;59870;50.106;8.580;2023-01-29T15:29:59;8.70;;;8.10;;
11245;SDS011;59870;50.106;8.580;2023-01-29T15:32:37;9.07;;;8.37;;
11245;SDS011;59870;50.106;8.580;2023-01-29T15:35:10;8.67;;;7.97;;
11245;SDS011;59870;50.106;8.580;2023-01-29T15:37:58;10.00;;;9.00;;
11245;SDS011;59870;50.106;8.580;2023-01-29T15:40:33;8.50;;;7.80;;
11245;SDS011;59870;50.106;8.580;2023-01-29T15:43:00;9.07;;;8.37;;
11245;SDS011;59870;50.106;8.580;2023-01-29T15:45:29;9.03;;;8.30;;
11245;SDS011;59870;50.106;8.580;2023-01-29T15:48:04;8.57;;;7.97;;
11245;SDS011;59870;50.106;8.580;2023-01-29T15:50:39;9.00;;;8.13;;
11245;SDS011;59870;50.106;8.580;2023-01-29T15:53:11;8.40;;;7.87;;
11245;SDS011;59870;50.106;8.580;2023-01-29T15:55:46;8.67;;;8.07;;
11245;SDS011;59870;50.106;8.580;2023-01-29T15:58:16;8.27;;;7.73;;
11245;SDS011;59870;50.106;8.580;2023-01-29T16:00:55;8.40;;;7.70;;
11245;SDS011;59870;50.106;8.580;2023-01-29T16:03:24;8.27;;;7.57;;
11245;SDS011;59870;50.106;8.580;2023-01-29T16:05:54;9.23;;;8.43;;
11245;SDS011;59870;50.106;8.580;2023-01-29T16:08:22;8.97;;;8.20;;
11245;SDS011;59870;50.106;8.580;2023-01-29T16:10:58;8.43;;;7.83;;
11245;SDS011;59870;50.106;8.580;2023-01-29T16:13:29;8.30;;;7.70;;
11245;SDS011;59870;50.106;8.580;2023-01-29T16:21:08;9.40;;;8.73;;
11245;SDS011;59870;50.106;8.580;2023-01-29T16:23:57;9.00;;;8.40;;
11245;SDS011;59870;50.106;8.580;2023-01-29T16:26:36;8.93;;;8.27;;
11245;SDS011;59870;50.106;8.580;2023-01-29T16:29:18;8.90;;;8.30;;
11245;SDS011;59870;50.106;8.580;2023-01-29T16:31:49;9.27;;;8.40;;
11245;SDS011;59870;50.106;8.580;2023-01-29T16:37:49;9.50;;;8.80;;
11245;SDS011;59870;50.106;8.580;2023-01-29T16:43:35;9.77;;;9.07;;
11245;SDS011;59870;50.106;8.580;2023-01-29T16:48:52;9.40;;;8.80;;
11245;SDS011;59870;50.106;8.580;2023-01-29T16:51:22;9.63;;;8.83;;
11245;SDS011;59870;50.106;8.580;2023-01-29T16:54:00;9.63;;;8.83;;
11245;SDS011;59870;50.106;8.580;2023-01-29T16:56:32;9.40;;;8.70;;
11245;SDS011;59870;50.106;8.580;2023-01-29T16:59:01;9.33;;;8.53;;
11245;SDS011;59870;50.106;8.580;2023-01-29T17:01:31;10.47;;;9.67;;
11245;SDS011;59870;50.106;8.580;2023-01-29T17:04:12;10.60;;;9.47;;
11245;SDS011;59870;50.106;8.580;2023-01-29T17:06:42;10.33;;;9.43;;
11245;SDS011;59870;50.106;8.580;2023-01-29T17:09:22;11.77;;;10.80;;
11245;SDS011;59870;50.106;8.580;2023-01-29T17:12:05;10.87;;;9.97;;
11245;SDS011;59870;50.106;8.580;2023-01-29T17:14:36;9.90;;;8.97;;
11245;SDS011;59870;50.106;8.580;2023-01-29T17:17:13;10.73;;;9.87;;
11245;SDS011;59870;50.106;8.580;2023-01-29T17:19:42;10.73;;;9.93;;
11245;SDS011;59870;50.106;8.580;2023-01-29T17:22:09;69.37;;;44.13;;
11245;SDS011;59870;50.106;8.580;2023-01-29T17:24:41;29.90;;;23.23;;
11245;SDS011;59870;50.106;8.580;2023-01-29T17:27:19;17.97;;;14.77;;
11245;SDS011;59870;50.106;8.580;2023-01-29T17:36:39;13.10;;;11.80;;
11245;SDS011;59870;50.106;8.580;2023-01-29T17:39:12;13.63;;;12.50;;
11245;SDS011;59870;50.106;8.580;2023-01-29T17:41:46;16.07;;;14.30;;
11245;SDS011;59870;50.106;8.580;2023-01-29T17:44:17;16.00;;;14.40;;
11245;SDS011;59870;50.106;8.580;2023-01-29T17:46:45;15.47;;;13.97;;
11245;SDS011;59870;50.106;8.580;2023-01-29T17:49:18;16.37;;;13.67;;
11245;SDS011;59870;50.106;8.580;2023-01-29T17:51:55;15.00;;;13.57;;
11245;SDS011;59870;50.106;8.580;2023-01-29T17:57:19;14.73;;;11.27;;
11245;SDS011;59870;50.106;8.580;2023-01-29T17:59:51;13.73;;;11.93;;
11245;SDS011;59870;50.106;8.580;2023-01-29T18:02:23;13.37;;;10.93;;
11245;SDS011;59870;50.106;8.580;2023-01-29T18:04:55;12.43;;;11.23;;
11245;SDS011;59870;50.106;8.580;2023-01-29T18:07:26;14.90;;;11.83;;
11245;SDS011;59870;50.106;8.580;2023-01-29T18:09:54;12.53;;;11.23;;
11245;SDS011;59870;50.106;8.580;2023-01-29T18:12:22;12.13;;;11.03;;
11245;SDS011;59870;50.106;8.580;2023-01-29T18:14:50;13.07;;;11.73;;
11245;SDS011;59870;50.106;8.580;2023-01-29T18:17:18;11.90;;;10.90;;
11245;SDS011;59870;50.106;8.580;2023-01-29T18:19:48;12.90;;;11.70;;
11245;SDS011;59870;50.106;8.580;2023-01-29T18:22:16;13.63;;;12.00;;
11245;SDS011;59870;50.106;8.580;2023-01-29T18:24:56;13.33;;;11.97;;
11245;SDS011;59870;50.106;8.580;2023-01-29T18:30:35;13.60;;;12.30;;
11245;SDS011;59870;50.106;8.580;2023-01-29T18:33:15;14.53;;;13.03;;
11245;SDS011;59870;50.106;8.580;2023-01-29T18:35:43;15.47;;;12.20;;
11245;SDS011;59870;50.106;8.580;2023-01-29T18:45:05;15.07;;;13.13;;
11245;SDS011;59870;50.106;8.580;2023-01-29T18:47:39;15.13;;;13.53;;
11245;SDS011;59870;50.106;8.580;2023-01-29T18:50:17;14.37;;;12.97;;
11245;SDS011;59870;50.106;8.580;2023-01-29T18:52:46;14.00;;;12.60;;